Weather at Margate Airport

Public forecast

Using degrees Celsius for public forecast. Weather courtesy of forecast.io.

Closest aviation weather report (METAR) to Margate Airport

Report is more than 6 hours old.

Closest report is King Shaka International Airport, 84.8 nm (157.1 km) NNE.

2022/11/14 15:00 (retrieved 2 years ago)

FALE 141500Z 13005KT 080V170 9999 BKN025 22/16 Q1022 NOSIG

Closest aviation forecast (TAF) to Margate Airport

Forecast is more than 12 hours old.

Closest forecast is King Shaka International Airport, 84.8 nm (157.1 km) NNE.

2023/02/22 18:00 (retrieved 1 year ago)

TAF FALE 221600Z 2218/2324 02007KT 9999 SCT028 BKN040 TX28/2312Z TN19/2304Z TEMPO 2218/2224 BKN015 BECMG 2222/2224 VRB03KT FM230800 04015KT CAVOK